createdAt,value
2023-03-04T00:01:02.983Z,28.40
2023-03-04T00:02:35.722Z,28.20
2023-03-04T00:04:08.479Z,27.83
2023-03-04T00:05:40.305Z,26.90
2023-03-04T00:07:16.643Z,27.75
2023-03-04T00:08:49.322Z,28.08
2023-03-04T00:10:23.320Z,26.88
2023-03-04T00:11:56.027Z,27.92
2023-03-04T00:13:28.771Z,27.00
2023-03-04T00:15:01.434Z,27.60
2023-03-04T00:16:33.248Z,29.27
2023-03-04T00:18:06.199Z,30.25
2023-03-04T00:19:39.105Z,28.27
2023-03-04T00:21:11.822Z,28.75
2023-03-04T00:22:43.559Z,28.40
2023-03-04T00:24:16.254Z,28.75
2023-03-04T00:25:49.402Z,28.35
2023-03-04T00:27:22.084Z,28.52
2023-03-04T00:28:53.965Z,28.90
2023-03-04T00:30:26.669Z,27.23
2023-03-04T00:31:59.526Z,28.80
2023-03-04T00:33:32.314Z,28.45
2023-03-04T00:35:05.719Z,28.30
2023-03-04T00:36:38.436Z,29.77
2023-03-04T00:38:11.128Z,30.40
2023-03-04T00:39:43.858Z,28.63
2023-03-04T00:41:18.112Z,29.42
2023-03-04T00:42:50.887Z,28.73
2023-03-04T00:44:23.581Z,29.88
2023-03-04T00:45:56.337Z,30.58
2023-03-04T00:47:29.043Z,30.10
2023-03-04T00:49:00.820Z,29.75
2023-03-04T00:50:33.775Z,29.52
2023-03-04T00:52:05.649Z,29.48
2023-03-04T00:53:38.352Z,30.05
2023-03-04T00:55:11.223Z,29.85
2023-03-04T00:56:45.266Z,28.50
2023-03-04T00:58:18.115Z,30.05
2023-03-04T00:59:51.049Z,29.48
2023-03-04T01:01:24.110Z,28.13
2023-03-04T01:02:55.912Z,28.75
2023-03-04T01:04:28.641Z,30.52
2023-03-04T01:06:01.957Z,29.30
2023-03-04T01:07:34.673Z,29.65
2023-03-04T01:09:08.400Z,29.33
2023-03-04T01:10:41.151Z,30.00
2023-03-04T01:12:15.179Z,30.13
2023-03-04T01:13:48.450Z,29.08
2023-03-04T01:15:20.329Z,28.67
2023-03-04T01:16:53.252Z,28.48
2023-03-04T01:18:26.111Z,26.60
2023-03-04T01:19:57.852Z,28.92
2023-03-04T01:21:30.585Z,27.20
2023-03-04T01:23:03.332Z,26.50
2023-03-04T01:24:36.564Z,26.50
2023-03-04T01:26:09.320Z,27.35
2023-03-04T01:27:43.364Z,26.85
2023-03-04T01:29:16.093Z,27.13
2023-03-04T01:30:48.830Z,26.15
2023-03-04T01:32:21.779Z,27.92
2023-03-04T01:33:54.502Z,28.45
2023-03-04T01:35:27.294Z,28.65
2023-03-04T01:36:59.972Z,29.85
2023-03-04T01:38:32.674Z,28.73
2023-03-04T01:40:05.781Z,29.17
2023-03-04T01:41:38.548Z,29.50
2023-03-04T01:43:20.172Z,30.35
2023-03-04T01:44:53.361Z,30.38
2023-03-04T01:46:26.236Z,29.38
2023-03-04T01:47:59.147Z,28.85
2023-03-04T01:49:31.877Z,28.95
2023-03-04T01:51:05.255Z,29.42
2023-03-04T01:52:40.022Z,30.27
2023-03-04T01:54:12.754Z,29.20
2023-03-04T01:55:45.479Z,30.05
2023-03-04T01:57:20.483Z,29.77
2023-03-04T01:59:12.803Z,29.63
2023-03-04T02:00:45.960Z,29.33
2023-03-04T02:02:17.832Z,28.20
2023-03-04T02:03:50.552Z,28.40
2023-03-04T02:05:23.043Z,28.25
2023-03-04T02:06:57.068Z,29.45
2023-03-04T02:08:30.042Z,29.45
2023-03-04T02:10:02.897Z,28.88
2023-03-04T02:11:35.624Z,29.40
2023-03-04T02:13:08.426Z,28.48
2023-03-04T02:14:42.547Z,29.17
2023-03-04T02:16:15.336Z,28.55
2023-03-04T02:17:48.211Z,27.80
2023-03-04T02:19:32.326Z,29.55
2023-03-04T02:21:12.740Z,28.33
2023-03-04T02:22:51.366Z,27.27
2023-03-04T02:24:30.105Z,29.13
2023-03-04T02:26:14.258Z,28.30
2023-03-04T02:27:46.981Z,29.15
2023-03-04T02:29:19.810Z,28.33
2023-03-04T02:30:52.842Z,26.58
2023-03-04T02:32:25.794Z,29.95
2023-03-04T02:34:00.574Z,28.55
2023-03-04T02:35:32.570Z,29.35
2023-03-04T02:37:05.594Z,27.90
2023-03-04T02:38:37.383Z,28.50
2023-03-04T02:40:16.177Z,28.30
2023-03-04T02:41:51.746Z,27.35
2023-03-04T02:43:23.524Z,29.48
2023-03-04T02:45:01.171Z,28.50
2023-03-04T02:46:33.891Z,28.60
2023-03-04T02:48:06.645Z,30.08
2023-03-04T02:49:41.329Z,30.63
2023-03-04T02:51:13.073Z,29.90
2023-03-04T02:52:45.834Z,29.30
2023-03-04T02:54:20.576Z,30.42
2023-03-04T02:55:52.354Z,30.15
2023-03-04T02:57:26.366Z,29.13
2023-03-04T02:58:59.045Z,29.10
2023-03-04T03:00:31.055Z,28.88
2023-03-04T03:02:03.896Z,30.52
2023-03-04T03:03:35.820Z,30.02
2023-03-04T03:05:09.122Z,27.92
2023-03-04T03:06:41.870Z,27.30
2023-03-04T03:08:13.889Z,30.42
2023-03-04T03:09:46.578Z,28.73
2023-03-04T03:11:19.263Z,28.98
2023-03-04T03:12:53.696Z,29.58
2023-03-04T03:14:26.426Z,30.90
2023-03-04T03:15:59.162Z,30.13
2023-03-04T03:17:30.918Z,30.25
2023-03-04T03:19:03.827Z,29.52
2023-03-04T03:20:36.534Z,30.52
2023-03-04T03:22:08.353Z,32.15
2023-03-04T03:23:41.225Z,30.73
2023-03-04T03:25:14.627Z,28.75
2023-03-04T03:26:47.310Z,31.23
2023-03-04T03:28:21.426Z,30.30
2023-03-04T03:29:54.115Z,31.23
2023-03-04T03:31:26.911Z,30.38
2023-03-04T03:32:59.719Z,29.33
2023-03-04T03:34:32.403Z,30.73
2023-03-04T03:36:06.013Z,30.55
2023-03-04T03:37:38.159Z,30.90
2023-03-04T03:39:11.149Z,29.83
2023-03-04T03:40:43.967Z,29.90
2023-03-04T03:42:16.813Z,29.08
2023-03-04T03:43:50.877Z,29.48
2023-03-04T03:45:22.660Z,30.25
2023-03-04T03:46:55.439Z,31.08
2023-03-04T03:48:27.267Z,30.23
2023-03-04T03:50:00.043Z,30.48
2023-03-04T03:51:31.883Z,31.85
2023-03-04T03:53:04.723Z,31.80
2023-03-04T03:54:37.452Z,31.02
2023-03-04T03:56:10.169Z,30.67
2023-03-04T03:57:42.890Z,30.42
2023-03-04T03:59:15.981Z,30.52
2023-03-04T04:00:48.725Z,30.10
2023-03-04T04:02:22.090Z,29.70
2023-03-04T04:03:54.953Z,28.75
2023-03-04T04:05:26.780Z,31.02
2023-03-04T04:06:59.473Z,30.08
2023-03-04T04:08:31.252Z,31.08
2023-03-04T04:10:05.175Z,29.88
2023-03-04T04:11:37.933Z,29.02
2023-03-04T04:13:11.109Z,30.48
2023-03-04T04:14:45.182Z,31.40
2023-03-04T04:16:17.954Z,29.02
2023-03-04T04:17:50.681Z,30.98
2023-03-04T04:19:23.388Z,32.03
2023-03-04T04:20:56.448Z,30.13
2023-03-04T04:22:29.171Z,30.60
2023-03-04T04:24:01.929Z,30.45
2023-03-04T04:25:34.675Z,30.48
2023-03-04T04:27:07.478Z,28.02
2023-03-04T04:28:39.208Z,30.83
2023-03-04T04:30:14.112Z,30.02
2023-03-04T04:31:46.819Z,30.10
2023-03-04T04:33:19.595Z,30.85
2023-03-04T04:34:52.273Z,30.42
2023-03-04T04:36:24.957Z,30.48
2023-03-04T04:37:57.717Z,28.92
2023-03-04T04:39:30.403Z,28.85
2023-03-04T04:41:18.288Z,30.48
2023-03-04T04:42:51.226Z,30.25
2023-03-04T04:44:23.001Z,30.27
2023-03-04T04:45:57.087Z,31.85
2023-03-04T04:47:28.868Z,29.95
2023-03-04T04:49:01.669Z,29.70
2023-03-04T04:50:33.433Z,30.83
2023-03-04T04:52:06.215Z,31.40
2023-03-04T04:53:38.427Z,32.17
2023-03-04T04:55:11.915Z,31.35
2023-03-04T04:56:44.825Z,31.05
2023-03-04T04:58:17.496Z,31.25
2023-03-04T04:59:50.236Z,31.35
2023-03-04T05:01:24.400Z,32.00
2023-03-04T05:02:56.202Z,32.60
2023-03-04T05:04:29.103Z,31.15
2023-03-04T05:06:00.923Z,31.17
2023-03-04T05:07:33.687Z,30.70
2023-03-04T05:09:07.095Z,31.42
2023-03-04T05:10:39.805Z,32.08
2023-03-04T05:12:12.872Z,31.27
2023-03-04T05:13:45.634Z,32.20
2023-03-04T05:15:18.675Z,30.92
2023-03-04T05:16:53.071Z,31.30
2023-03-04T05:18:26.182Z,31.92
2023-03-04T05:19:58.896Z,31.83
2023-03-04T05:21:31.618Z,32.03
2023-03-04T05:23:04.629Z,31.58
2023-03-04T05:24:37.338Z,32.22
2023-03-04T05:26:12.350Z,31.50
2023-03-04T05:27:45.066Z,32.78
2023-03-04T05:29:17.777Z,32.47
2023-03-04T05:30:49.719Z,31.58
2023-03-04T05:32:23.918Z,31.85
2023-03-04T05:33:56.651Z,32.63
2023-03-04T05:35:29.125Z,30.90
2023-03-04T05:37:01.924Z,30.38
2023-03-04T05:38:34.021Z,31.08
2023-03-04T05:40:08.342Z,32.80
2023-03-04T05:41:41.031Z,31.55
2023-03-04T05:43:13.203Z,32.35
2023-03-04T05:44:45.948Z,31.65
2023-03-04T05:46:24.065Z,31.20
2023-03-04T05:47:58.403Z,30.60
2023-03-04T05:49:31.109Z,31.20
2023-03-04T05:51:03.983Z,32.40
2023-03-04T05:52:36.793Z,32.42
2023-03-04T05:54:09.554Z,33.97
2023-03-04T05:55:47.084Z,32.20
2023-03-04T05:57:18.904Z,30.48
2023-03-04T05:58:51.594Z,31.60
2023-03-04T06:00:24.653Z,30.15
2023-03-04T06:01:57.470Z,29.83
2023-03-04T06:03:31.578Z,31.00
2023-03-04T06:05:04.554Z,30.67
2023-03-04T06:06:37.256Z,31.05
2023-03-04T06:08:10.129Z,30.35
2023-03-04T06:09:45.017Z,32.08
2023-03-04T06:11:17.724Z,31.08
2023-03-04T06:12:50.434Z,30.70
2023-03-04T06:14:23.150Z,31.70
2023-03-04T06:15:57.168Z,31.10
2023-03-04T06:17:29.970Z,31.88
2023-03-04T06:19:04.027Z,30.58
2023-03-04T06:20:37.087Z,31.50
2023-03-04T06:22:10.750Z,29.17
2023-03-04T06:23:45.081Z,29.58
2023-03-04T06:25:17.906Z,30.05
2023-03-04T06:26:50.592Z,30.20
2023-03-04T06:28:23.732Z,30.15
2023-03-04T06:29:56.368Z,30.38
2023-03-04T06:31:29.166Z,30.38
2023-03-04T06:33:01.892Z,29.48
2023-03-04T06:34:36.215Z,29.27
2023-03-04T06:36:09.221Z,30.23
2023-03-04T06:37:42.003Z,30.52
2023-03-04T06:39:14.781Z,29.95
2023-03-04T06:40:47.501Z,29.33
2023-03-04T06:42:20.358Z,29.30
2023-03-04T06:43:54.877Z,29.40
2023-03-04T06:45:27.709Z,29.52
2023-03-04T06:47:00.537Z,27.73
2023-03-04T06:48:33.277Z,27.80
2023-03-04T06:50:08.060Z,27.13
2023-03-04T06:51:40.778Z,26.85
2023-03-04T06:53:13.531Z,32.50
2023-03-04T06:54:46.261Z,29.98
2023-03-04T06:56:18.082Z,30.10
2023-03-04T06:57:50.957Z,27.63
2023-03-04T06:59:23.713Z,28.25
2023-03-04T07:00:56.430Z,26.48
2023-03-04T07:02:28.180Z,26.42
2023-03-04T07:04:01.092Z,27.08
2023-03-04T07:05:35.141Z,25.85
2023-03-04T07:07:07.860Z,27.67
2023-03-04T07:08:40.812Z,25.20
2023-03-04T07:10:13.492Z,26.02
2023-03-04T07:11:46.449Z,25.70
2023-03-04T07:13:19.154Z,26.10
2023-03-04T07:14:51.838Z,26.45
2023-03-04T07:16:25.152Z,25.55
2023-03-04T07:17:57.904Z,27.17
2023-03-04T07:19:30.670Z,27.92
2023-03-04T07:21:05.185Z,26.00
2023-03-04T07:22:37.984Z,26.42
2023-03-04T07:24:10.694Z,26.95
2023-03-04T07:25:43.428Z,39.00
2023-03-04T07:27:16.103Z,31.98
2023-03-04T07:28:49.707Z,27.67
2023-03-04T07:30:22.628Z,30.02
2023-03-04T07:31:55.491Z,28.73
2023-03-04T07:33:28.255Z,28.30
2023-03-04T07:35:01.008Z,26.50
2023-03-04T07:36:37.288Z,28.83
2023-03-04T07:38:09.999Z,27.40
2023-03-04T07:39:42.765Z,27.00
2023-03-04T07:41:15.579Z,27.42
2023-03-04T07:42:50.961Z,27.17
2023-03-04T07:44:23.832Z,27.27
2023-03-04T07:46:01.501Z,26.85
2023-03-04T07:47:34.309Z,28.60
2023-03-04T07:49:07.038Z,27.30
2023-03-04T07:50:39.726Z,28.38
2023-03-04T07:52:14.434Z,27.67
2023-03-04T07:53:48.796Z,27.15
2023-03-04T07:55:21.519Z,26.90
2023-03-04T07:56:54.380Z,26.77
2023-03-04T07:58:26.236Z,28.00
2023-03-04T07:59:58.956Z,29.33
2023-03-04T08:01:33.841Z,29.98
2023-03-04T08:03:06.562Z,28.98
2023-03-04T08:04:39.431Z,27.25
2023-03-04T08:06:12.840Z,27.00
2023-03-04T08:07:46.870Z,28.45
2023-03-04T08:09:19.583Z,25.48
2023-03-04T08:10:52.281Z,22.98
2023-03-04T08:12:25.682Z,24.13
2023-03-04T08:13:58.805Z,24.38
2023-03-04T08:15:32.832Z,23.58
2023-03-04T08:17:05.587Z,24.70
2023-03-04T08:18:39.604Z,24.05
2023-03-04T08:20:13.685Z,28.13
2023-03-04T08:21:46.457Z,27.13
2023-03-04T08:23:19.826Z,23.02
2023-03-04T08:24:52.583Z,24.15
2023-03-04T08:26:27.981Z,25.42
2023-03-04T08:28:00.723Z,25.77
2023-03-04T08:29:33.524Z,28.83
2023-03-04T08:31:06.533Z,28.67
2023-03-04T08:32:39.423Z,31.00
2023-03-04T08:34:12.956Z,35.85
2023-03-04T08:35:45.766Z,32.50
2023-03-04T08:37:18.508Z,26.50
2023-03-04T08:38:52.539Z,22.20
2023-03-04T08:40:27.027Z,22.45
2023-03-04T08:41:59.752Z,22.60
2023-03-04T08:43:33.152Z,21.58
2023-03-04T08:45:06.749Z,21.08
2023-03-04T08:46:40.765Z,21.27
2023-03-04T08:48:13.485Z,21.63
2023-03-04T08:49:46.206Z,21.35
2023-03-04T08:51:19.199Z,19.92
2023-03-04T08:52:51.880Z,18.75
2023-03-04T08:54:25.919Z,18.23
2023-03-04T08:55:58.668Z,17.75
2023-03-04T08:57:31.425Z,16.13
2023-03-04T08:59:04.170Z,15.52
2023-03-04T09:00:40.290Z,16.50
2023-03-04T09:02:12.974Z,16.75
2023-03-04T09:03:45.789Z,15.50
2023-03-04T09:05:18.596Z,15.55
2023-03-04T09:06:53.629Z,14.80
2023-03-04T09:08:26.688Z,15.35
2023-03-04T09:10:00.690Z,15.32
2023-03-04T09:11:33.427Z,15.45
2023-03-04T09:13:06.263Z,14.88
2023-03-04T09:14:38.969Z,15.38
2023-03-04T09:16:14.115Z,15.65
2023-03-04T09:17:47.113Z,15.43
2023-03-04T09:19:19.822Z,15.13
2023-03-04T09:20:53.267Z,14.65
2023-03-04T09:22:26.198Z,13.95
2023-03-04T09:23:58.893Z,13.90
2023-03-04T09:25:33.672Z,13.77
2023-03-04T09:27:06.357Z,13.90
2023-03-04T09:28:39.097Z,14.55
2023-03-04T09:30:12.847Z,16.02
2023-03-04T09:31:45.574Z,15.55
2023-03-04T09:33:18.827Z,15.00
2023-03-04T09:34:51.514Z,15.25
2023-03-04T09:36:24.778Z,14.55
2023-03-04T09:37:57.811Z,14.23
2023-03-04T09:39:30.539Z,13.27
2023-03-04T09:41:08.561Z,13.25
2023-03-04T09:42:47.475Z,14.07
2023-03-04T09:44:25.025Z,13.00
2023-03-04T09:46:00.647Z,13.43
2023-03-04T09:47:36.555Z,18.63
2023-03-04T09:49:12.710Z,12.07
2023-03-04T09:50:53.173Z,11.68
2023-03-04T09:52:38.541Z,11.55
2023-03-04T09:54:16.222Z,11.65
2023-03-04T09:55:53.163Z,11.55
2023-03-04T09:57:31.772Z,11.57
2023-03-04T09:59:13.403Z,11.95
2023-03-04T10:00:51.308Z,11.27
2023-03-04T10:02:30.282Z,12.15
2023-03-04T10:04:14.033Z,12.40
2023-03-04T10:05:57.535Z,11.73
2023-03-04T10:07:37.214Z,13.05
2023-03-04T10:09:15.039Z,11.55
2023-03-04T10:10:49.477Z,11.90
2023-03-04T10:12:25.699Z,11.85
2023-03-04T10:14:09.707Z,11.43
2023-03-04T10:15:46.402Z,11.50
2023-03-04T10:17:23.864Z,11.60
2023-03-04T10:18:59.844Z,10.65
2023-03-04T10:20:47.903Z,10.93
2023-03-04T10:22:26.693Z,10.45
2023-03-04T10:24:01.010Z,10.48
2023-03-04T10:25:34.348Z,10.57
2023-03-04T10:27:14.475Z,11.45
2023-03-04T10:28:47.459Z,10.48
2023-03-04T10:30:31.533Z,11.10
2023-03-04T10:32:04.446Z,10.68
2023-03-04T10:33:38.852Z,10.48
2023-03-04T10:35:13.814Z,10.75
2023-03-04T10:36:56.459Z,10.70
2023-03-04T10:38:32.886Z,10.30
2023-03-04T10:40:18.665Z,10.65
2023-03-04T10:42:01.061Z,11.10
2023-03-04T10:43:33.818Z,9.82
2023-03-04T10:45:23.670Z,9.65
2023-03-04T10:46:57.971Z,9.40
2023-03-04T10:48:32.850Z,8.68
2023-03-04T10:50:06.955Z,9.18
2023-03-04T10:51:44.521Z,8.88
2023-03-04T10:53:29.343Z,9.05
2023-03-04T10:55:05.260Z,8.85
2023-03-04T10:56:40.957Z,9.13
2023-03-04T10:58:18.145Z,8.32
2023-03-04T10:59:56.839Z,8.75
2023-03-04T11:01:30.898Z,8.45
2023-03-04T11:03:36.346Z,8.40
2023-03-04T11:05:19.640Z,8.82
2023-03-04T11:06:52.990Z,9.30
2023-03-04T11:08:25.684Z,8.50
2023-03-04T11:10:10.068Z,8.50
2023-03-04T11:11:45.879Z,8.75
2023-03-04T11:13:20.750Z,9.02
2023-03-04T11:14:53.666Z,8.57
2023-03-04T11:16:30.959Z,8.32
2023-03-04T11:18:06.883Z,8.68
2023-03-04T11:19:40.969Z,8.43
2023-03-04T11:21:19.179Z,9.65
2023-03-04T11:22:53.172Z,10.00
2023-03-04T11:24:29.674Z,11.55
2023-03-04T11:26:05.492Z,10.45
2023-03-04T11:27:43.959Z,10.80
2023-03-04T11:29:20.188Z,10.45
2023-03-04T11:30:56.647Z,10.32
2023-03-04T11:32:34.970Z,11.30
2023-03-04T11:34:16.201Z,10.57
2023-03-04T11:35:58.130Z,10.75
2023-03-04T11:37:36.299Z,11.80
2023-03-04T11:39:18.281Z,12.55
2023-03-04T11:40:55.177Z,11.75
2023-03-04T11:42:35.772Z,12.00
2023-03-04T11:44:09.813Z,12.55
2023-03-04T11:46:21.482Z,14.80
2023-03-04T11:48:05.602Z,14.18
2023-03-04T11:50:19.944Z,12.73
2023-03-04T11:52:00.616Z,11.20
2023-03-04T11:53:44.940Z,10.70
2023-03-04T11:55:30.379Z,11.15
2023-03-04T11:57:13.060Z,10.07
2023-03-04T11:59:02.122Z,10.55
2023-03-04T12:00:44.548Z,10.43
2023-03-04T12:02:20.372Z,10.25
2023-03-04T12:04:22.952Z,10.32
2023-03-04T12:06:03.676Z,10.32
2023-03-04T12:07:51.202Z,9.68
2023-03-04T12:09:38.589Z,10.45
2023-03-04T12:11:18.247Z,9.73
2023-03-04T12:13:28.227Z,10.02
2023-03-04T12:15:14.283Z,9.35
2023-03-04T12:17:19.201Z,9.23
2023-03-04T12:19:13.684Z,9.23
2023-03-04T12:20:59.100Z,9.15
2023-03-04T12:22:40.379Z,8.80
2023-03-04T12:24:37.800Z,9.60
2023-03-04T12:26:25.469Z,9.77
2023-03-04T12:28:12.421Z,9.38
2023-03-04T12:29:54.933Z,9.23
2023-03-04T12:31:39.990Z,9.70
2023-03-04T12:33:25.269Z,8.90
2023-03-04T12:35:17.398Z,9.73
2023-03-04T12:37:00.304Z,9.27
2023-03-04T12:38:43.258Z,9.20
2023-03-04T12:40:33.453Z,9.45
2023-03-04T12:42:19.531Z,9.20
2023-03-04T12:43:59.336Z,9.45
2023-03-04T12:45:41.608Z,8.60
2023-03-04T12:47:26.096Z,9.35
2023-03-04T12:49:26.961Z,8.88
2023-03-04T12:51:09.417Z,9.00
2023-03-04T12:52:51.095Z,8.88
2023-03-04T12:54:32.339Z,9.02
2023-03-04T12:56:09.912Z,9.63
2023-03-04T12:57:43.982Z,9.00
2023-03-04T12:59:19.436Z,8.77
2023-03-04T13:00:59.452Z,9.85
2023-03-04T13:02:46.321Z,9.13
2023-03-04T13:04:27.561Z,8.05
2023-03-04T13:06:15.726Z,8.18
2023-03-04T13:07:58.701Z,8.13
2023-03-04T13:09:34.837Z,7.78
2023-03-04T13:11:42.403Z,7.72
2023-03-04T13:13:40.533Z,7.60
2023-03-04T13:15:20.006Z,7.53
2023-03-04T13:16:54.123Z,7.55
2023-03-04T13:18:34.898Z,7.57
2023-03-04T13:20:21.792Z,8.60
2023-03-04T13:21:54.615Z,7.38
2023-03-04T13:23:31.874Z,7.72
2023-03-04T13:25:29.855Z,7.25
2023-03-04T13:27:04.547Z,7.13
2023-03-04T13:28:38.046Z,7.60
2023-03-04T13:30:41.975Z,7.13
2023-03-04T13:32:34.772Z,7.20
2023-03-04T13:34:48.804Z,6.93
2023-03-04T13:36:52.642Z,7.45
2023-03-04T13:38:34.755Z,6.70
2023-03-04T13:40:35.193Z,7.43
2023-03-04T13:42:40.826Z,6.80
2023-03-04T13:44:33.502Z,7.00
2023-03-04T13:46:31.050Z,6.45
2023-03-04T13:48:09.297Z,7.00
2023-03-04T13:49:42.043Z,7.18
2023-03-04T13:51:28.944Z,7.20
2023-03-04T13:53:23.954Z,7.32
2023-03-04T13:55:30.192Z,7.07
2023-03-04T13:57:18.964Z,7.25
2023-03-04T13:58:54.051Z,6.80
2023-03-04T14:00:27.990Z,7.07
2023-03-04T14:02:11.688Z,6.75
2023-03-04T14:03:45.014Z,6.82
2023-03-04T14:05:17.752Z,6.45
2023-03-04T14:06:52.427Z,7.55
2023-03-04T14:08:26.932Z,6.43
2023-03-04T14:10:02.409Z,7.53
2023-03-04T14:11:41.666Z,6.40
2023-03-04T14:13:15.749Z,6.38
2023-03-04T14:14:51.733Z,6.75
2023-03-04T14:16:28.116Z,6.32
2023-03-04T14:18:02.612Z,6.95
2023-03-04T14:19:44.243Z,6.75
2023-03-04T14:21:17.617Z,7.38
2023-03-04T14:22:50.344Z,6.95
2023-03-04T14:24:24.208Z,7.10
2023-03-04T14:26:12.207Z,7.32
2023-03-04T14:27:45.129Z,7.82
2023-03-04T14:29:29.232Z,8.65
2023-03-04T14:31:02.315Z,7.28
2023-03-04T14:32:35.335Z,7.50
2023-03-04T14:34:14.823Z,6.88
2023-03-04T14:35:49.343Z,7.22
2023-03-04T14:37:24.452Z,7.22
2023-03-04T14:38:59.450Z,8.18
2023-03-04T14:40:36.535Z,7.20
2023-03-04T14:42:13.136Z,6.82
2023-03-04T14:43:53.212Z,7.35
2023-03-04T14:45:27.456Z,8.02
2023-03-04T14:47:08.478Z,7.90
2023-03-04T14:48:46.005Z,7.80
2023-03-04T14:50:20.922Z,6.97
2023-03-04T14:51:54.681Z,7.57
2023-03-04T14:53:29.204Z,8.48
2023-03-04T14:55:10.801Z,8.20
2023-03-04T14:56:45.714Z,8.52
2023-03-04T14:58:22.505Z,9.75
2023-03-04T14:59:55.706Z,8.70
2023-03-04T15:01:35.589Z,7.70
2023-03-04T15:03:21.878Z,7.60
2023-03-04T15:04:54.784Z,7.80
2023-03-04T15:06:29.667Z,8.23
2023-03-04T15:08:05.075Z,7.72
2023-03-04T15:09:38.002Z,8.60
2023-03-04T15:11:21.958Z,8.93
2023-03-04T15:12:56.288Z,10.10
2023-03-04T15:14:54.648Z,8.88
2023-03-04T15:16:30.461Z,9.60
2023-03-04T15:18:15.155Z,9.40
2023-03-04T15:19:59.137Z,9.70
2023-03-04T15:21:35.283Z,8.90
2023-03-04T15:23:08.368Z,10.02
2023-03-04T15:24:41.115Z,9.20
2023-03-04T15:26:14.624Z,10.27
2023-03-04T15:27:47.712Z,8.15
2023-03-04T15:29:21.479Z,9.07
2023-03-04T15:30:54.507Z,10.38
2023-03-04T15:32:27.798Z,12.93
2023-03-04T15:34:01.899Z,9.55
2023-03-04T15:35:34.748Z,9.70
2023-03-04T15:37:07.584Z,9.57
2023-03-04T15:38:42.286Z,10.35
2023-03-04T15:40:21.678Z,11.10
2023-03-04T15:41:55.558Z,9.85
2023-03-04T15:43:28.309Z,9.95
2023-03-04T15:45:01.015Z,9.63
2023-03-04T15:46:33.799Z,9.52
2023-03-04T15:48:08.888Z,8.75
2023-03-04T15:49:43.677Z,10.35
2023-03-04T15:51:18.227Z,8.15
2023-03-04T15:52:51.626Z,8.43
2023-03-04T15:54:29.511Z,9.00
2023-03-04T15:56:03.483Z,8.20
2023-03-04T15:57:36.273Z,9.35
2023-03-04T15:59:13.191Z,8.50
2023-03-04T16:00:45.957Z,8.27
2023-03-04T16:02:21.922Z,7.70
2023-03-04T16:03:54.634Z,8.25
2023-03-04T16:05:28.698Z,7.80
2023-03-04T16:07:01.406Z,8.57
2023-03-04T16:08:34.131Z,7.97
2023-03-04T16:10:12.956Z,8.38
2023-03-04T16:11:47.519Z,7.90
2023-03-04T16:13:21.947Z,7.80
2023-03-04T16:14:54.880Z,7.80
2023-03-04T16:16:27.671Z,7.15
2023-03-04T16:18:00.487Z,8.18
2023-03-04T16:19:33.239Z,7.90
2023-03-04T16:21:07.916Z,8.05
2023-03-04T16:22:42.252Z,7.65
2023-03-04T16:24:18.743Z,7.97
2023-03-04T16:25:54.592Z,8.05
2023-03-04T16:27:27.386Z,8.02
2023-03-04T16:29:00.281Z,8.23
2023-03-04T16:30:33.304Z,7.45
2023-03-04T16:32:06.347Z,7.70
2023-03-04T16:33:39.061Z,8.02
2023-03-04T16:35:13.039Z,8.32
2023-03-04T16:36:47.148Z,7.60
2023-03-04T16:38:25.770Z,7.57
2023-03-04T16:39:59.811Z,8.07
2023-03-04T16:41:32.515Z,7.90
2023-03-04T16:43:05.230Z,7.93
2023-03-04T16:44:37.954Z,7.60
2023-03-04T16:46:13.174Z,7.35
2023-03-04T16:47:46.212Z,6.95
2023-03-04T16:49:18.917Z,7.78
2023-03-04T16:50:51.828Z,7.20
2023-03-04T16:52:29.379Z,7.28
2023-03-04T16:54:02.619Z,7.00
2023-03-04T16:55:38.180Z,7.95
2023-03-04T16:57:12.824Z,8.10
2023-03-04T16:58:46.576Z,8.80
2023-03-04T17:00:21.732Z,8.18
2023-03-04T17:01:55.226Z,7.05
2023-03-04T17:03:28.062Z,6.93
2023-03-04T17:05:00.854Z,7.65
2023-03-04T17:06:34.337Z,7.32
2023-03-04T17:08:08.448Z,7.22
2023-03-04T17:09:41.248Z,7.68
2023-03-04T17:11:16.583Z,7.65
2023-03-04T17:12:49.902Z,7.65
2023-03-04T17:14:22.833Z,8.25
2023-03-04T17:15:55.678Z,7.90
2023-03-04T17:17:28.417Z,7.82
2023-03-04T17:19:01.327Z,7.72
2023-03-04T17:20:34.031Z,8.48
2023-03-04T17:22:06.715Z,8.32
2023-03-04T17:23:40.797Z,8.00
2023-03-04T17:25:14.771Z,8.52
2023-03-04T17:26:47.631Z,8.45
2023-03-04T17:28:20.311Z,9.70
2023-03-04T17:29:54.929Z,12.00
2023-03-04T17:31:27.775Z,9.82
2023-03-04T17:33:00.573Z,9.85
2023-03-04T17:34:33.575Z,9.40
2023-03-04T17:36:06.950Z,8.75
2023-03-04T17:37:39.666Z,8.80
2023-03-04T17:39:13.962Z,9.10
2023-03-04T17:40:46.734Z,8.82
2023-03-04T17:42:19.636Z,8.73
2023-03-04T17:43:54.435Z,8.70
2023-03-04T17:45:27.249Z,10.85
2023-03-04T17:46:59.934Z,15.23
2023-03-04T17:48:32.641Z,14.82
2023-03-04T17:50:06.574Z,12.05
2023-03-04T17:51:40.547Z,12.80
2023-03-04T17:53:13.240Z,25.05
2023-03-04T17:54:47.738Z,24.75
2023-03-04T17:56:20.447Z,12.43
2023-03-04T17:57:55.421Z,10.48
2023-03-04T17:59:28.142Z,9.50
2023-03-04T18:01:05.904Z,8.60
2023-03-04T18:02:38.633Z,9.18
2023-03-04T18:04:11.481Z,10.00
2023-03-04T18:05:44.356Z,9.15
2023-03-04T18:07:17.067Z,9.80
2023-03-04T18:08:50.078Z,9.20
2023-03-04T18:10:24.087Z,9.25
2023-03-04T18:11:56.836Z,8.95
2023-03-04T18:13:29.555Z,9.00
2023-03-04T18:15:02.240Z,8.27
2023-03-04T18:16:35.319Z,8.60
2023-03-04T18:18:08.254Z,8.95
2023-03-04T18:19:41.083Z,9.23
2023-03-04T18:21:14.461Z,8.80
2023-03-04T18:22:47.223Z,9.25
2023-03-04T18:24:19.942Z,9.10
2023-03-04T18:25:54.100Z,9.00
2023-03-04T18:27:27.793Z,8.75
2023-03-04T18:29:00.499Z,9.07
2023-03-04T18:30:33.409Z,8.75
2023-03-04T18:32:06.923Z,9.25
2023-03-04T18:33:40.581Z,9.07
2023-03-04T18:35:13.901Z,8.93
2023-03-04T18:36:47.552Z,8.68
2023-03-04T18:38:20.702Z,8.73
2023-03-04T18:39:53.372Z,9.00
2023-03-04T18:41:28.244Z,9.00
2023-03-04T18:43:01.054Z,8.40
2023-03-04T18:44:33.775Z,8.23
2023-03-04T18:46:08.420Z,8.25
2023-03-04T18:47:42.802Z,9.32
2023-03-04T18:49:16.309Z,9.40
2023-03-04T18:50:50.037Z,9.27
2023-03-04T18:52:23.772Z,9.55
2023-03-04T18:53:56.456Z,9.82
2023-03-04T18:55:29.209Z,10.00
2023-03-04T18:57:06.945Z,9.73
2023-03-04T18:58:41.161Z,10.05
2023-03-04T19:00:17.796Z,9.60
2023-03-04T19:01:51.816Z,9.68
2023-03-04T19:03:24.891Z,9.35
2023-03-04T19:05:02.608Z,9.57
2023-03-04T19:06:35.583Z,9.70
2023-03-04T19:08:08.308Z,8.95
2023-03-04T19:09:40.991Z,9.32
2023-03-04T19:11:14.583Z,9.43
2023-03-04T19:12:48.658Z,10.30
2023-03-04T19:14:21.401Z,11.50
2023-03-04T19:15:55.241Z,10.38
2023-03-04T19:17:31.775Z,10.70
2023-03-04T19:19:04.559Z,9.70
2023-03-04T19:20:37.884Z,10.35
2023-03-04T19:22:10.602Z,10.20
2023-03-04T19:23:43.362Z,10.45
2023-03-04T19:25:16.116Z,10.07
2023-03-04T19:26:48.811Z,9.95
2023-03-04T19:28:24.136Z,9.90
2023-03-04T19:29:56.813Z,9.57
2023-03-04T19:31:29.546Z,10.43
2023-03-04T19:33:02.982Z,9.23
2023-03-04T19:34:35.685Z,9.00
2023-03-04T19:36:10.170Z,9.80
2023-03-04T19:37:42.899Z,9.80
2023-03-04T19:39:18.314Z,9.75
2023-03-04T19:40:51.039Z,15.57
2023-03-04T19:42:24.388Z,14.15
2023-03-04T19:43:58.658Z,9.95
2023-03-04T19:45:31.467Z,10.95
2023-03-04T19:47:04.600Z,9.63
2023-03-04T19:48:37.983Z,9.45
2023-03-04T19:50:13.248Z,9.15
2023-03-04T19:51:46.139Z,9.20
2023-03-04T19:53:19.288Z,9.30
2023-03-04T19:54:52.054Z,9.30
2023-03-04T19:56:25.116Z,9.27
2023-03-04T19:57:57.809Z,8.90
2023-03-04T19:59:31.839Z,8.80
2023-03-04T20:01:04.926Z,8.63
2023-03-04T20:02:37.870Z,9.52
2023-03-04T20:04:12.722Z,9.38
2023-03-04T20:05:46.342Z,9.45
2023-03-04T20:07:19.133Z,8.30
2023-03-04T20:08:52.212Z,9.38
2023-03-04T20:10:24.930Z,9.30
2023-03-04T20:11:59.446Z,11.57
2023-03-04T20:13:32.302Z,11.43
2023-03-04T20:15:08.533Z,12.70
2023-03-04T20:16:41.594Z,19.98
2023-03-04T20:18:14.293Z,17.00
2023-03-04T20:19:47.425Z,22.70
2023-03-04T20:21:20.401Z,14.55
2023-03-04T20:22:53.119Z,12.25
2023-03-04T20:24:26.193Z,11.73
2023-03-04T20:25:58.929Z,12.23
2023-03-04T20:27:31.644Z,13.00
2023-03-04T20:29:04.341Z,11.77
2023-03-04T20:30:39.097Z,13.25
2023-03-04T20:32:11.803Z,13.10
2023-03-04T20:33:44.951Z,12.55
2023-03-04T20:35:18.004Z,12.18
2023-03-04T20:36:50.770Z,11.18
2023-03-04T20:38:23.481Z,12.52
2023-03-04T20:39:57.357Z,13.07
2023-03-04T20:41:30.205Z,11.75
2023-03-04T20:43:05.388Z,11.07
2023-03-04T20:44:38.082Z,10.77
2023-03-04T20:46:29.191Z,9.75